• Join FlightAware (Why Join?)
  • Login
  • US Flag 
01:41PM EDT


 

Airport Tracker/Info


-or-


 

Live Flight TrackerFlight Track Log ✈ AFL150 ✈ 03-Jan-2014 ✈ UUEE / SVO - MUHA / HAV

Flight Track Log - Related Links

Times and Time Zones

All times are in EST time to prevent confusion due to time zone crossing. See the AFL150 flight status page for this flight to view local times or setup timezone preferences in your user account.

Time Position Orientation Groundspeed Altitude Reporting Facility
EST Latitude Longitude Course Direction KTS MPH feet Rate Location/Type
04:38AM 56.3304 36.9380 318° Northwest  Level FlightAware Approximate
04:39AM 56.4227 36.7869 318° Northwest  Level FlightAware Approximate
04:40AM 56.5148 36.6351 318° Northwest  Level FlightAware Approximate
04:41AM 56.6068 36.4825 318° Northwest  Level FlightAware Approximate
04:42AM 56.6985 36.3292 317° Northwest  Level FlightAware Approximate
04:43AM 56.7901 36.1751 317° Northwest  Level FlightAware Approximate
04:44AM 56.8814 36.0202 317° Northwest  Level FlightAware Approximate
04:45AM 56.9726 35.8646 317° Northwest  Level FlightAware Approximate
04:46AM 57.0636 35.7083 317° Northwest  Level FlightAware Approximate
04:47AM 57.1544 35.5512 317° Northwest  Level FlightAware Approximate
04:48AM 57.2449 35.3932 317° Northwest  Level FlightAware Approximate
04:49AM 57.3164 35.2045 315° West  Level Estimated
04:50AM 57.4054 35.0427 316° Northwest  Level FlightAware Approximate
04:51AM 57.4941 34.8801 315° West  Level FlightAware Approximate
04:52AM 57.5826 34.7167 315° West  Level FlightAware Approximate
04:53AM 57.6709 34.5526 315° West  Level FlightAware Approximate
04:54AM 57.7589 34.3876 315° West  Level FlightAware Approximate
04:55AM 57.8468 34.2218 315° West  Level FlightAware Approximate
04:56AM 57.9344 34.0552 315° West  Level FlightAware Approximate
04:57AM 58.0219 33.8878 315° West  Level FlightAware Approximate
04:58AM 58.1091 33.7196 314° West  Level FlightAware Approximate
04:59AM 58.1960 33.5505 314° West  Level FlightAware Approximate
05:00AM 58.2828 33.3806 314° West  Level FlightAware Approximate
05:01AM 58.3693 33.2099 314° West  Level FlightAware Approximate
05:02AM 58.4556 33.0384 314° West  Level FlightAware Approximate
05:03AM 58.5417 32.8660 314° West  Level FlightAware Approximate
05:04AM 58.6275 32.6927 314° West  Level FlightAware Approximate
05:05AM 58.7131 32.5187 313° West  Level FlightAware Approximate
05:06AM 58.7985 32.3437 313° West  Level FlightAware Approximate
05:07AM 58.8836 32.1679 313° West  Level FlightAware Approximate
05:08AM 58.9685 31.9912 313° West  Level FlightAware Approximate
05:09AM 59.0532 31.8137 313° West  Level FlightAware Approximate
05:10AM 59.1376 31.6352 313° West  Level FlightAware Approximate
05:11AM 59.2217 31.4559 313° West  Level FlightAware Approximate
05:12AM 59.3056 31.2757 312° West  Level FlightAware Approximate
05:13AM 59.3893 31.0947 312° West  Level FlightAware Approximate
05:14AM 59.4727 30.9127 312° West  Level FlightAware Approximate
05:15AM 59.5559 30.7298 312° West  Level FlightAware Approximate
05:16AM 59.6388 30.5460 312° West  Level FlightAware Approximate
05:17AM 59.7214 30.3613 312° West  Level FlightAware Approximate
05:18AM 59.8038 30.1757 311° West  Level FlightAware Approximate
05:19AM 59.8859 29.9892 311° West  Level FlightAware Approximate
05:20AM 59.9678 29.8018 311° West  Level FlightAware Approximate
05:21AM 60.0493 29.6134 311° West  Level FlightAware Approximate
05:22AM 60.1306 29.4241 311° West  Level FlightAware Approximate
05:23AM 60.2117 29.2339 311° West  Level FlightAware Approximate
05:24AM 60.2925 29.0427 310° West  Level FlightAware Approximate
05:25AM 60.3730 28.8506 310° West  Level FlightAware Approximate
05:26AM 60.4532 28.6575 310° West  Level FlightAware Approximate
05:27AM 60.5331 28.4635 310° West  Level FlightAware Approximate
05:28AM 60.6128 28.2685 310° West  Level FlightAware Approximate
05:29AM 60.6921 28.0725 310° West  Level FlightAware Approximate
05:30AM 60.7712 27.8756 309° West  Level FlightAware Approximate
05:31AM 60.8500 27.6777 309° West  Level FlightAware Approximate
05:32AM 60.9285 27.4789 309° West  Level FlightAware Approximate
05:33AM 61.0067 27.2790 309° West  Level FlightAware Approximate
05:34AM 61.0846 27.0782 309° West  Level FlightAware Approximate
05:35AM 61.1622 26.8764 309° West  Level FlightAware Approximate
05:36AM 61.2395 26.6735 308° West  Level FlightAware Approximate
05:37AM 61.3165 26.4697 308° West  Level FlightAware Approximate
05:38AM 61.3932 26.2649 308° West  Level FlightAware Approximate
05:39AM 61.4696 26.0591 308° West  Level FlightAware Approximate
05:40AM 61.5457 25.8523 308° West  Level FlightAware Approximate
05:41AM 61.6015 25.6183 307° West  Level Estimated
05:42AM 61.6770 25.4097 307° West  Level FlightAware Approximate
05:43AM 61.7523 25.2002 307° West  Level FlightAware Approximate
05:44AM 61.8272 24.9896 307° West  Level FlightAware Approximate
05:45AM 61.9018 24.7780 307° West  Level FlightAware Approximate
05:46AM 61.9761 24.5654 307° West  Level FlightAware Approximate
05:47AM 62.0500 24.3518 307° West  Level FlightAware Approximate
05:48AM 62.1237 24.1371 306° West  Level FlightAware Approximate
05:49AM 62.1970 23.9213 306° West  Level FlightAware Approximate
05:50AM 62.2699 23.7045 306° West  Level FlightAware Approximate
05:51AM 62.3425 23.4867 306° West  Level FlightAware Approximate
05:52AM 62.4148 23.2678 306° West  Level FlightAware Approximate
05:53AM 62.4867 23.0478 305° West  Level FlightAware Approximate
05:54AM 62.5583 22.8268 305° West  Level FlightAware Approximate
05:55AM 62.6295 22.6047 305° West  Level FlightAware Approximate
05:56AM 62.7004 22.3816 305° West  Level FlightAware Approximate
05:57AM 62.7709 22.1574 305° West  Level FlightAware Approximate
05:58AM 62.8411 21.9321 304° West  Level FlightAware Approximate
05:59AM 62.9109 21.7058 304° West  Level FlightAware Approximate
06:00AM 62.9803 21.4783 304° West  Level FlightAware Approximate
06:01AM 63.0494 21.2498 304° West  Level FlightAware Approximate
06:02AM 63.1181 21.0202 304° West  Level FlightAware Approximate
06:03AM 63.1864 20.7895 303° West  Level FlightAware Approximate
06:04AM 63.2543 20.5577 303° West  Level FlightAware Approximate
06:05AM 63.3219 20.3249 303° West  Level FlightAware Approximate
06:06AM 63.3891 20.0909 303° West  Level FlightAware Approximate
06:07AM 63.4559 19.8559 303° West  Level FlightAware Approximate
06:08AM 63.5223 19.6197 302° West  Level FlightAware Approximate
06:09AM 63.5883 19.3825 302° West  Level FlightAware Approximate
06:10AM 63.6323 19.1202 301° West  Level Estimated
06:11AM 63.6974 18.8807 302° West  Level FlightAware Approximate
06:12AM 63.7620 18.6400 301° West  Level FlightAware Approximate
06:13AM 63.8262 18.3983 301° West  Level FlightAware Approximate
06:14AM 63.8901 18.1554 301° West  Level FlightAware Approximate
06:15AM 63.9535 17.9115 301° West  Level FlightAware Approximate
06:16AM 64.0165 17.6665 300° West  Level FlightAware Approximate
06:17AM 64.0791 17.4203 300° West  Level FlightAware Approximate
06:18AM 64.1413 17.1730 300° West  Level FlightAware Approximate
06:19AM 64.2030 16.9247 300° West  Level FlightAware Approximate
06:20AM 64.2644 16.6752 300° West  Level FlightAware Approximate
06:21AM 64.3253 16.4246 299° West  Level FlightAware Approximate
06:22AM 64.3857 16.1730 299° West  Level FlightAware Approximate
06:23AM 64.4458 15.9202 299° West  Level FlightAware Approximate
06:24AM 64.5054 15.6663 299° West  Level FlightAware Approximate
06:25AM 64.5646 15.4113 298° West  Level FlightAware Approximate
06:26AM 64.6233 15.1552 298° West  Level FlightAware Approximate
06:27AM 64.6816 14.8979 298° West  Level FlightAware Approximate
06:28AM 64.7394 14.6396 298° West  Level FlightAware Approximate
06:29AM 64.7968 14.3802 298° West  Level FlightAware Approximate
06:30AM 64.8537 14.1197 297° West  Level FlightAware Approximate
06:31AM 64.9102 13.8580 297° West  Level FlightAware Approximate
06:32AM 64.9662 13.5953 297° West  Level FlightAware Approximate
06:33AM 65.0217 13.3315 297° West  Level FlightAware Approximate
06:34AM 65.0768 13.0666 296° West  Level FlightAware Approximate
06:35AM 65.1314 12.8006 296° West  Level FlightAware Approximate
06:36AM 65.1856 12.5335 296° West  Level FlightAware Approximate
06:37AM 65.2392 12.2653 296° West  Level FlightAware Approximate
06:38AM 65.2924 11.9960 295° West  Level FlightAware Approximate
06:39AM 65.3451 11.7256 295° West  Level FlightAware Approximate
06:40AM 65.3973 11.4542 295° West  Level FlightAware Approximate
06:41AM 65.4490 11.1817 295° West  Level FlightAware Approximate
06:42AM 65.5003 10.9081 294° West  Level FlightAware Approximate
06:43AM 65.5510 10.6334 294° West  Level FlightAware Approximate
06:44AM 65.6012 10.3577 294° West  Level FlightAware Approximate
06:45AM 65.6510 10.0809 294° West  Level FlightAware Approximate
06:46AM 65.7002 9.8031 293° West  Level FlightAware Approximate
06:47AM 65.7255 9.5065 292° West  Level Estimated
06:48AM 65.7733 9.2263 293° West  Level FlightAware Approximate
06:49AM 65.8205 8.9451 292° West  Level FlightAware Approximate
06:50AM 65.8672 8.6629 292° West  Level FlightAware Approximate
06:51AM 65.9135 8.3797 292° West  Level FlightAware Approximate
06:52AM 65.9591 8.0954 292° West  Level FlightAware Approximate
06:53AM 66.0043 7.8101 291° West  Level FlightAware Approximate
06:54AM 66.0489 7.5238 291° West  Level FlightAware Approximate
06:55AM 66.0930 7.2366 291° West  Level FlightAware Approximate
06:56AM 66.1366 6.9483 291° West  Level FlightAware Approximate
06:57AM 66.1796 6.6590 290° West  Level FlightAware Approximate
06:58AM 66.2221 6.3688 290° West  Level FlightAware Approximate
06:59AM 66.2640 6.0776 290° West  Level FlightAware Approximate
07:00AM 66.3054 5.7854 290° West  Level FlightAware Approximate
07:01AM 66.3463 5.4923 289° West  Level FlightAware Approximate
07:02AM 66.3866 5.1982 289° West  Level FlightAware Approximate
07:03AM 66.4263 4.9032 289° West  Level FlightAware Approximate
07:04AM 66.4655 4.6072 288° West  Level FlightAware Approximate
07:05AM 66.5041 4.3103 288° West  Level FlightAware Approximate
07:06AM 66.5421 4.0125 288° West  Level FlightAware Approximate
07:07AM 66.5796 3.7138 288° West  Level FlightAware Approximate
07:08AM 66.6165 3.4142 287° West  Level FlightAware Approximate
07:09AM 66.6529 3.1138 287° West  Level FlightAware Approximate
07:10AM 66.6886 2.8124 287° West  Level FlightAware Approximate
07:11AM 66.7238 2.5102 287° West  Level FlightAware Approximate
07:12AM 66.7584 2.2071 286° West  Level FlightAware Approximate
07:13AM 66.7925 1.9031 286° West  Level FlightAware Approximate
07:14AM 66.8259 1.5984 286° West  Level FlightAware Approximate
07:15AM 66.8587 1.2928 285° West  Level FlightAware Approximate
07:16AM 66.8910 0.9864 285° West  Level FlightAware Approximate
07:17AM 66.9227 0.6792 285° West  Level FlightAware Approximate
07:18AM 66.9538 0.3712 285° West  Level FlightAware Approximate
07:19AM 66.9842 0.0624 284° West  Level FlightAware Approximate
07:20AM 67.0141 -0.2472 284° West  Level FlightAware Approximate
07:21AM 67.0434 -0.5575 284° West  Level FlightAware Approximate
07:22AM 67.0720 -0.8685 283° West  Level FlightAware Approximate
07:23AM 67.1001 -1.1803 283° West  Level FlightAware Approximate
07:24AM 67.1275 -1.4928 283° West  Level FlightAware Approximate
07:25AM 67.1544 -1.8060 283° West  Level FlightAware Approximate
07:26AM 67.1806 -2.1198 282° West  Level FlightAware Approximate
07:27AM 67.2062 -2.4344 282° West  Level FlightAware Approximate
07:28AM 67.2312 -2.7496 282° West  Level FlightAware Approximate
07:29AM 67.2556 -3.0654 281° West  Level FlightAware Approximate
07:30AM 67.2793 -3.3819 281° West  Level FlightAware Approximate
07:31AM 67.3024 -3.6991 281° West  Level FlightAware Approximate
07:32AM 67.3249 -4.0168 281° West  Level FlightAware Approximate
07:33AM 67.3468 -4.3351 280° West  Level FlightAware Approximate
07:34AM 67.3680 -4.6540 280° West  Level FlightAware Approximate
07:35AM 67.3887 -4.9734 280° West  Level FlightAware Approximate
07:36AM 67.4086 -5.2934 279° West  Level FlightAware Approximate
07:37AM 67.4280 -5.6139 279° West  Level FlightAware Approximate
07:38AM 67.4467 -5.9349 279° West  Level FlightAware Approximate
07:39AM 67.4648 -6.2565 278° West  Level FlightAware Approximate
07:40AM 67.4822 -6.5785 278° West  Level FlightAware Approximate
07:41AM 67.4990 -6.9009 278° West  Level FlightAware Approximate
07:42AM 67.5151 -7.2238 278° West  Level FlightAware Approximate
07:43AM 67.5306 -7.5472 277° West  Level FlightAware Approximate
07:44AM 67.5455 -7.8710 277° West  Level FlightAware Approximate
07:45AM 67.5597 -8.1951 277° West  Level FlightAware Approximate
07:46AM 67.5732 -8.5197 276° West  Level FlightAware Approximate
07:47AM 67.5861 -8.8446 276° West  Level FlightAware Approximate
07:48AM 67.5984 -9.1698 276° West  Level FlightAware Approximate
07:49AM 67.6100 -9.4954 275° West  Level FlightAware Approximate
07:50AM 67.6210 -9.8213 275° West  Level FlightAware Approximate
07:51AM 67.6313 -10.1475 275° West  Level FlightAware Approximate
07:52AM 67.6409 -10.4739 275° West  Level FlightAware Approximate
07:53AM 67.6499 -10.8006 274° West  Level FlightAware Approximate
07:54AM 67.6582 -11.1276 274° West  Level FlightAware Approximate
07:55AM 67.6659 -11.4548 274° West  Level FlightAware Approximate
07:56AM 67.6730 -11.7822 273° West  Level FlightAware Approximate
07:57AM 67.6793 -12.1097 273° West  Level FlightAware Approximate
07:58AM 67.6850 -12.4375 273° West  Level FlightAware Approximate
07:59AM 67.6901 -12.7654 272° West  Level FlightAware Approximate
08:00AM 67.6945 -13.0934 272° West  Level FlightAware Approximate
08:01AM 67.6982 -13.4215 272° West  Level FlightAware Approximate
08:02AM 67.7013 -13.7497 272° West  Level FlightAware Approximate
08:03AM 67.7037 -14.0780 271° West  Level FlightAware Approximate
08:04AM 67.7054 -14.4064 271° West  Level FlightAware Approximate
08:05AM 67.7065 -14.7348 271° West  Level FlightAware Approximate
08:06AM 67.7069 -15.0632 270° West  Level FlightAware Approximate
08:07AM 67.7067 -15.3917 270° West  Level FlightAware Approximate
08:08AM 67.7058 -15.7201 270° West  Level FlightAware Approximate
08:09AM 67.7043 -16.0485 269° West  Level FlightAware Approximate
08:10AM 67.7021 -16.3768 269° West  Level FlightAware Approximate
08:11AM 67.6992 -16.7050 269° West  Level FlightAware Approximate
08:12AM 67.6957 -17.0332 269° West  Level FlightAware Approximate
08:13AM 67.6915 -17.3612 268° West  Level FlightAware Approximate
08:14AM 67.6866 -17.6892 268° West  Level FlightAware Approximate
08:15AM 67.6811 -18.0170 268° West  Level FlightAware Approximate
08:16AM 67.6749 -18.3446 267° West  Level FlightAware Approximate
08:17AM 67.6681 -18.6720 267° West  Level FlightAware Approximate
08:18AM 67.6606 -18.9993 267° West  Level FlightAware Approximate
08:19AM 67.6525 -19.3263 266° West  Level FlightAware Approximate
08:20AM 67.6437 -19.6531 266° West  Level FlightAware Approximate
08:21AM 67.6342 -19.9796 266° West  Level FlightAware Approximate
08:22AM 67.6241 -20.3059 265° West  Level FlightAware Approximate
08:23AM 67.6134 -20.6319 265° West  Level FlightAware Approximate
08:24AM 67.6020 -20.9576 265° West  Level FlightAware Approximate
08:25AM 67.5899 -21.2829 265° West  Level FlightAware Approximate
08:26AM 67.5772 -21.6079 264° West  Level FlightAware Approximate
08:27AM 67.5638 -21.9326 264° West  Level FlightAware Approximate
08:28AM 67.5498 -22.2568 264° West  Level FlightAware Approximate
08:29AM 67.5351 -22.5807 263° West  Level FlightAware Approximate
08:30AM 67.5198 -22.9042 263° West  Level FlightAware Approximate
08:31AM 67.5039 -23.2272 263° West  Level FlightAware Approximate
08:32AM 67.4873 -23.5498 262° West  Level FlightAware Approximate
08:33AM 67.4700 -23.8720 262° West  Level FlightAware Approximate
08:34AM 67.4522 -24.1936 262° West  Level FlightAware Approximate
08:35AM 67.4336 -24.5148 262° West  Level FlightAware Approximate
08:36AM 67.4145 -24.8355 261° West  Level FlightAware Approximate
08:37AM 67.3947 -25.1556 261° West  Level FlightAware Approximate
08:38AM 67.3743 -25.4753 261° West  Level FlightAware Approximate
08:39AM 67.3532 -25.7943 260° West  Level FlightAware Approximate
08:40AM 67.3316 -26.1128 260° West  Level FlightAware Approximate
08:41AM 67.3092 -26.4307 260° West  Level FlightAware Approximate
08:42AM 67.2863 -26.7480 260° West  Level FlightAware Approximate
08:43AM 67.2627 -27.0647 259° West  Level FlightAware Approximate
08:44AM 67.2386 -27.3807 259° West  Level FlightAware Approximate
08:45AM 67.2138 -27.6961 259° West  Level FlightAware Approximate
08:46AM 67.1883 -28.0109 258° West  Level FlightAware Approximate
08:47AM 67.1623 -28.3249 258° West  Level FlightAware Approximate
08:48AM 67.1356 -28.6383 258° West  Level FlightAware Approximate
08:49AM 67.1084 -28.9510 258° West  Level FlightAware Approximate
08:50AM 67.0805 -29.2630 257° West  Level FlightAware Approximate
08:51AM 67.0520 -29.5743 257° West  Level FlightAware Approximate
08:52AM 67.0229 -29.8848 257° West  Level FlightAware Approximate
08:53AM 66.9932 -30.1946 256° West  Level FlightAware Approximate
08:54AM 66.9629 -30.5036 256° West  Level FlightAware Approximate
08:55AM 66.9320 -30.8118 256° West  Level FlightAware Approximate
08:56AM 66.9005 -31.1193 256° West  Level FlightAware Approximate
08:57AM 66.8685 -31.4259 255° West  Level FlightAware Approximate
08:58AM 66.8358 -31.7318 255° West  Level FlightAware Approximate
08:59AM 66.8025 -32.0368 255° West  Level FlightAware Approximate
09:00AM 66.7687 -32.3410 254° West  Level FlightAware Approximate
09:01AM 66.7342 -32.6443 254° West  Level FlightAware Approximate
09:02AM 66.6992 -32.9468 254° West  Level FlightAware Approximate
09:03AM 66.6636 -33.2484 254° West  Level FlightAware Approximate
09:04AM 66.6275 -33.5492 253° West  Level FlightAware Approximate
09:05AM 66.5907 -33.8490 253° West  Level FlightAware Approximate
09:06AM 66.5534 -34.1480 253° West  Level FlightAware Approximate
09:07AM 66.5155 -34.4461 252° West  Level FlightAware Approximate
09:08AM 66.4771 -34.7432 252° West  Level FlightAware Approximate
09:09AM 66.4381 -35.0395 252° West  Level FlightAware Approximate
09:10AM 66.3985 -35.3348 252° West  Level FlightAware Approximate
09:11AM 66.3584 -35.6291 251° West  Level FlightAware Approximate
09:12AM 66.3177 -35.9225 251° West  Level FlightAware Approximate
09:13AM 66.2765 -36.2150 251° West  Level FlightAware Approximate
09:14AM 66.2347 -36.5065 251° West  Level FlightAware Approximate
09:15AM 66.1924 -36.7970 250° West  Level FlightAware Approximate
09:16AM 66.1495 -37.0866 250° West  Level FlightAware Approximate
09:17AM 66.1061 -37.3751 250° West  Level FlightAware Approximate
09:18AM 66.0621 -37.6627 249° West  Level FlightAware Approximate
09:19AM 66.0177 -37.9493 249° West  Level FlightAware Approximate
09:20AM 65.9727 -38.2349 249° West  Level FlightAware Approximate
09:21AM 65.9271 -38.5194 249° West  Level FlightAware Approximate
09:22AM 65.8811 -38.8030 248° West  Level FlightAware Approximate
09:23AM 65.8345 -39.0855 248° West  Level FlightAware Approximate
09:24AM 65.7874 -39.3670 248° West  Level FlightAware Approximate
09:25AM 65.7398 -39.6475 248° West  Level FlightAware Approximate
09:26AM 65.6917 -39.9269 247° West  Level FlightAware Approximate
09:27AM 65.6431 -40.2053 247° West  Level FlightAware Approximate
09:28AM 65.5939 -40.4826 247° West  Level FlightAware Approximate
09:29AM 65.5443 -40.7589 247° West  Level FlightAware Approximate
09:30AM 65.4941 -41.0341 246° West  Level FlightAware Approximate
09:31AM 65.4435 -41.3083 246° West  Level FlightAware Approximate
09:32AM 65.3924 -41.5814 246° West  Level FlightAware Approximate
09:33AM 65.3407 -41.8534 246° West  Level FlightAware Approximate
09:34AM 65.2886 -42.1244 245° Southwest  Level FlightAware Approximate
09:35AM 65.2360 -42.3943 245° Southwest  Level FlightAware Approximate
09:36AM 65.1829 -42.6631 245° Southwest  Level FlightAware Approximate
09:37AM 65.1294 -42.9309 245° Southwest  Level FlightAware Approximate
09:38AM 65.0753 -43.1975 244° Southwest  Level FlightAware Approximate
09:39AM 65.0208 -43.4631 244° Southwest  Level FlightAware Approximate
09:40AM 64.9659 -43.7276 244° Southwest  Level FlightAware Approximate
09:41AM 64.9104 -43.9909 244° Southwest  Level FlightAware Approximate
09:42AM 64.8545 -44.2532 243° Southwest  Level FlightAware Approximate
09:43AM 64.7982 -44.5145 243° Southwest  Level FlightAware Approximate
09:44AM 64.7413 -44.7746 243° Southwest  Level FlightAware Approximate
09:45AM 64.6841 -45.0336 243° Southwest  Level FlightAware Approximate
09:46AM 64.6263 -45.2915 243° Southwest  Level FlightAware Approximate
09:47AM 64.5682 -45.5483 242° Southwest  Level FlightAware Approximate
09:48AM 64.5095 -45.8041 242° Southwest  Level FlightAware Approximate
09:49AM 64.4505 -46.0587 242° Southwest  Level FlightAware Approximate
09:50AM 64.3910 -46.3122 242° Southwest  Level FlightAware Approximate
09:51AM 64.3310 -46.5646 241° Southwest  Level FlightAware Approximate
09:52AM 64.2707 -46.8160 241° Southwest  Level FlightAware Approximate
09:53AM 64.2099 -47.0662 241° Southwest  Level FlightAware Approximate
09:54AM 64.1487 -47.3153 241° Southwest  Level FlightAware Approximate
09:55AM 64.0870 -47.5634 240° Southwest  Level FlightAware Approximate
09:56AM 64.0250 -47.8103 240° Southwest  Level FlightAware Approximate
09:57AM 63.9625 -48.0561 240° Southwest  Level FlightAware Approximate
09:58AM 63.8996 -48.3008 240° Southwest  Level FlightAware Approximate
09:59AM 63.8363 -48.5445 240° Southwest  Level FlightAware Approximate
10:00AM 63.7725 -48.7870 239° Southwest  Level FlightAware Approximate
10:01AM 63.7084 -49.0285 239° Southwest  Level FlightAware Approximate
10:02AM 63.6439 -49.2688 239° Southwest  Level FlightAware Approximate
10:03AM 63.5790 -49.5080 239° Southwest  Level FlightAware Approximate
10:04AM 63.5137 -49.7462 238° Southwest  Level FlightAware Approximate
10:05AM 63.4480 -49.9833 238° Southwest  Level FlightAware Approximate
10:06AM 63.3819 -50.2192 238° Southwest  Level FlightAware Approximate
10:07AM 63.3154 -50.4541 238° Southwest  Level FlightAware Approximate
10:08AM 63.2485 -50.6879 238° Southwest  Level FlightAware Approximate
10:09AM 63.1812 -50.9207 237° Southwest  Level FlightAware Approximate
10:10AM 63.1136 -51.1523 237° Southwest  Level FlightAware Approximate
10:11AM 63.0456 -51.3829 237° Southwest  Level FlightAware Approximate
10:12AM 62.9772 -51.6123 237° Southwest  Level FlightAware Approximate
10:13AM 62.9085 -51.8408 237° Southwest  Level FlightAware Approximate
10:14AM 62.8394 -52.0681 236° Southwest  Level FlightAware Approximate
10:15AM 62.7699 -52.2944 236° Southwest  Level FlightAware Approximate
10:16AM 62.7000 -52.5196 236° Southwest  Level FlightAware Approximate
10:17AM 62.6298 -52.7437 236° Southwest  Level FlightAware Approximate
10:18AM 62.5592 -52.9668 236° Southwest  Level FlightAware Approximate
10:19AM 62.4883 -53.1888 235° Southwest  Level FlightAware Approximate
10:20AM 62.4170 -53.4098 235° Southwest  Level FlightAware Approximate
10:21AM 62.3454 -53.6297 235° Southwest  Level FlightAware Approximate
10:22AM 62.2735 -53.8485 235° Southwest  Level FlightAware Approximate
10:23AM 62.2012 -54.0663 235° Southwest  Level FlightAware Approximate
10:24AM 62.1285 -54.2831 234° Southwest  Level FlightAware Approximate
10:25AM 62.0317 -54.4505 233° Southwest  Level Estimated
10:26AM 61.9621 -54.6706 236° Southwest  Level FlightAware Approximate
10:27AM 61.8922 -54.8897 236° Southwest  Level FlightAware Approximate
10:28AM 61.8219 -55.1078 236° Southwest  Level FlightAware Approximate
10:29AM 61.7239 -55.2705 232° Southwest  Level Estimated
10:30AM 61.6544 -55.4885 236° Southwest  Level FlightAware Approximate
10:31AM 61.5845 -55.7055 236° Southwest  Level FlightAware Approximate
10:32AM 61.5144 -55.9216 236° Southwest  Level FlightAware Approximate
10:33AM 61.4152 -56.0796 232° Southwest  Level Estimated
10:34AM 61.3436 -56.2924 235° Southwest  Level FlightAware Approximate
10:35AM 61.2716 -56.5042 235° Southwest  Level FlightAware Approximate
10:36AM 61.1994 -56.7151 235° Southwest  Level FlightAware Approximate
10:36AM 63.3000 -56.2333 216° Southwest 440 506 34,000  Level Gander Center
10:37AM 61.0981 -56.8701 217° Southwest  Level Estimated
10:37AM 63.2333 -56.4667 238° Southwest 450 518 34,000  Level Gander Center
10:38AM 60.9967 -57.0242 216° Southwest  Level Estimated
10:38AM 63.1667 -56.7000 238° Southwest 440 506 34,000  Level Gander Center
10:39AM 60.8951 -57.1772 216° Southwest  Level Estimated
10:39AM 63.0667 -56.9333 227° Southwest 450 518 34,000  Level Gander Center
10:40AM 60.7934 -57.3293 216° Southwest  Level Estimated
10:40AM 63.0167 -57.1500 243° Southwest 450 518 34,000  Level Gander Center
10:41AM 62.9500 -57.3500 234° Southwest 450 518 34,000  Level Gander Center
10:42AM 62.8667 -57.5833 232° Southwest 470 541 34,000  Level Gander Center
10:43AM 62.8000 -57.8000 236° Southwest 490 564 34,000  Level Gander Center
10:44AM 62.7167 -58.0333 232° Southwest 450 518 34,000  Level Gander Center
10:45AM 62.6500 -58.2500 236° Southwest 440 506 34,000  Level Gander Center
10:46AM 62.5833 -58.4833 238° Southwest 450 518 34,000  Level Gander Center
10:47AM 62.5000 -58.6667 225° Southwest 450 518 34,000  Level Gander Center
10:48AM 62.4167 -58.8833 230° Southwest 450 518 34,000  Level Gander Center
10:49AM 62.3500 -59.1000 237° Southwest 450 518 34,000  Level Gander Center
10:50AM 62.2667 -59.3167 230° Southwest 450 518 34,000  Level Gander Center
10:51AM 62.2000 -59.5000 232° Southwest 450 518 34,000  Level Gander Center
10:52AM 62.1000 -59.7167 225° Southwest 450 518 34,000  Level Gander Center
10:53AM 62.0333 -59.9333 237° Southwest 440 506 34,000 -3,300 Level Gander Center
10:54AM 61.9500 -60.1167 226° Southwest 450 518 27,500  Descending Gander Center
10:55AM 61.8667 -60.3333 231° Southwest 450 518 34,000 3,240 Climbing Gander Center
10:56AM 61.8167 -60.5500 244° Southwest 440 506 34,000  Level Gander Center
10:57AM 61.7333 -60.7167 223° Southwest 440 506 34,000  Level Gander Center
10:58AM 61.6500 -60.9333 231° Southwest 440 506 34,000  Level Gander Center
10:59AM 61.5667 -61.1000 224° Southwest 440 506 34,000  Level Gander Center
11:00AM 61.5000 -61.3167 237° Southwest 440 506 34,000  Level Gander Center
11:01AM 61.4167 -61.5167 229° Southwest 450 518 34,000  Level Gander Center
11:02AM 61.3333 -61.7000 227° Southwest 450 518 34,000  Level Gander Center
11:03AM 61.2500 -61.9333 233° Southwest 450 518 34,000  Level Gander Center
11:04AM 61.1667 -62.1000 224° Southwest 450 518 34,000  Level Gander Center
11:05AM 61.1000 -62.2833 233° Southwest 450 518 34,000  Level Gander Center
11:06AM 61.0000 -62.5167 229° Southwest 450 518 34,000  Level Gander Center
11:07AM 60.9000 -62.6833 219° Southwest 450 518 34,000  Level Gander Center
11:08AM 60.8500 -62.8500 238° Southwest 440 506 34,000  Level Gander Center
11:09AM 60.7500 -63.0833 229° Southwest 440 506 34,000  Level Gander Center
11:10AM 60.6833 -63.2500 231° Southwest 440 506 34,000  Level Gander Center
11:11AM 60.6000 -63.4500 230° Southwest 440 506 34,000  Level Gander Center
11:12AM 60.5167 -63.6167 225° Southwest 440 506 34,000  Level Gander Center
11:13AM 60.4333 -63.8500 234° Southwest 440 506 34,000  Level Gander Center
11:14AM 60.3333 -64.0000 217° Southwest 440 506 34,000  Level Gander Center
11:15AM 60.2667 -64.2000 236° Southwest 440 506 34,000  Level Gander Center
11:16AM 60.1833 -64.3667 225° Southwest 440 506 34,000  Level Gander Center
11:17AM 60.1000 -64.5500 228° Southwest 440 506 34,000  Level Gander Center
11:18AM 60.0000 -64.7167 220° Southwest 440 506 34,000  Level Gander Center
11:19AM 59.9333 -64.9000 234° Southwest 440 506 34,000  Level Gander Center
11:20AM 59.8500 -65.0667 225° Southwest 440 506 34,000  Level Gander Center
11:21AM 59.7667 -65.2500 228° Southwest 440 506 34,000  Level Gander Center
11:22AM 59.6667 -65.4000 217° Southwest 440 506 34,000  Level Gander Center
11:23AM 59.6000 -65.5833 234° Southwest 440 506 34,000  Level Gander Center
11:24AM 59.5167 -65.7500 225° Southwest 440 506 34,000 180 Level Gander Center
11:25AM 59.4167 -65.9333 223° Southwest 440 506 34,400 480 Climbing Gander Center
11:26AM 59.3333 -66.1167 228° Southwest 450 518 35,000 600 Climbing Gander Center
11:27AM 59.2500 -66.3000 228° Southwest 450 518 35,600 480 Climbing Gander Center
11:28AM 59.1500 -66.4500 218° Southwest 450 518 36,000 180 Climbing Gander Center
11:29AM 59.0667 -66.6333 229° Southwest 450 518 36,000  Level Gander Center
11:30AM 58.9667 -66.8167 223° Southwest 460 529 36,000  Level Gander Center
11:31AM 58.8833 -66.9500 220° Southwest 460 529 36,000  Level Gander Center
11:32AM 58.8167 -67.1333 235° Southwest 460 529 36,000  Level Gander Center
11:33AM 58.7167 -67.3167 224° Southwest 450 518 36,000  Level Gander Center
11:34AM 58.6333 -67.5000 229° Southwest 450 518 36,000  Level Gander Center
11:35AM 58.5333 -67.6333 215° Southwest 460 529 36,000  Level Gander Center
11:36AM 58.4500 -67.8167 229° Southwest 460 529 36,000  Level Gander Center
11:37AM 58.3500 -67.9833 221° Southwest 460 529 36,000  Level Gander Center
11:38AM 58.2667 -68.1667 229° Southwest 470 541 36,000  Level Gander Center
11:39AM 58.1667 -68.3333 221° Southwest 480 552 36,000  Level Gander Center
11:40AM 58.0667 -68.4833 218° Southwest 420 483 36,000  Level Gander Center
11:41AM 57.9667 -68.6167 215° Southwest 470 541 36,000  Level Gander Center
11:42AM 57.8500 -68.7833 217° Southwest 460 529 36,000  Level Gander Center
11:43AM 57.7667 -68.9167 221° Southwest 460 529 36,000  Level Gander Center
11:44AM 57.6500 -69.0500 211° Southwest 460 529 36,000  Level Gander Center
11:45AM 57.5500 -69.1833 216° Southwest 460 529 36,000  Level Gander Center
11:46AM 57.4333 -69.3500 218° Southwest 460 529 36,000  Level Gander Center
11:47AM 57.3500 -69.4833 221° Southwest 460 529 36,000  Level Gander Center
11:48AM 57.2333 -69.6167 212° Southwest 460 529 36,000  Level Gander Center
11:49AM 57.1333 -69.7500 216° Southwest 460 529 36,000  Level Gander Center
11:50AM 57.0333 -69.8833 216° Southwest 460 529 36,000  Level Gander Center
11:51AM 56.9333 -70.0167 216° Southwest 460 529 36,000  Level Gander Center
11:52AM 56.8333 -70.1500 216° Southwest 460 529 36,000  Level Gander Center
11:53AM 56.7167 -70.2667 209° Southwest 460 529 36,000  Level Gander Center
11:54AM 56.6167 -70.4000 216° Southwest 460 529 36,000  Level Gander Center
11:55AM 56.5167 -70.5333 216° Southwest 450 518 36,000  Level Gander Center
11:56AM 56.4167 -70.6500 213° Southwest 460 529 36,000  Level Gander Center
11:57AM 56.3000 -70.7833 212° Southwest 450 518 36,000  Level Gander Center
11:58AM 56.1833 -70.9000 209° Southwest 460 529 36,000  Level Gander Center
11:59AM 56.1000 -71.0333 222° Southwest 460 529 36,000  Level Gander Center
12:00PM 55.9833 -71.1500 209° Southwest 460 529 36,000  Level Gander Center
12:01PM 55.8667 -71.3000 216° Southwest 460 529 36,000  Level Gander Center
12:02PM 55.7833 -71.4333 222° Southwest 450 518 36,000  Level Gander Center
12:03PM 55.6667 -71.5500 209° Southwest 460 529 36,000  Level Gander Center
12:04PM 55.5667 -71.6833 217° Southwest 450 518 36,000  Level Gander Center
12:05PM 55.4667 -71.8000 213° Southwest 460 529 36,000  Level Gander Center
12:06PM 55.3500 -71.9167 210° Southwest 460 529 36,000  Level Gander Center
12:07PM 55.2500 -72.0333 214° Southwest 460 529 36,000  Level Gander Center
12:08PM 55.1500 -72.1500 214° Southwest 460 529 36,000  Level Gander Center
12:09PM 55.0333 -72.2667 210° Southwest 450 518 36,000  Level Gander Center
12:10PM 54.9333 -72.4000 217° Southwest 450 518 36,000  Level Gander Center
12:11PM 54.8333 -72.5167 214° Southwest 460 529 36,000  Level Gander Center
12:12PM 54.7167 -72.6333 210° Southwest 450 518 36,000  Level Gander Center
12:13PM 54.6167 -72.7500 214° Southwest 450 518 36,000  Level Gander Center
12:14PM 54.5000 -72.8667 210° Southwest 450 518 36,000  Level Gander Center
12:15PM 54.4000 -72.9667 210° Southwest 450 518 36,000  Level Gander Center
12:16PM 54.3000 -73.0833 214° Southwest 450 518 36,000  Level Gander Center
12:17PM 54.1833 -73.2000 210° Southwest 450 518 36,000  Level Gander Center
12:18PM 54.1000 -73.3167 219° Southwest 450 518 36,000  Level Gander Center
12:19PM 53.9833 -73.4333 210° Southwest 450 518 36,000  Level Gander Center
12:20PM 53.8667 -73.5667 214° Southwest 460 529 36,000  Level Gander Center
12:21PM 53.7667 -73.6833 215° Southwest 460 529 36,000  Level Gander Center
12:22PM 53.6667 -73.7667 206° Southwest 460 529 36,000  Level Gander Center
12:23PM 53.5500 -73.8667 207° Southwest 460 529 36,000  Level Gander Center
12:24PM 53.4167 -73.9833 208° Southwest 460 529 36,000  Level Gander Center
12:25PM 53.3000 -74.0667 203° Southwest 460 529 36,000  Level Gander Center
12:26PM 53.2000 -74.1667 211° Southwest 460 529 36,000  Level Gander Center
12:27PM 53.0833 -74.2667 207° Southwest 460 529 36,000  Level Gander Center
12:28PM 52.9833 -74.2833 186° South 450 518 36,000  Level Montreal Center
12:29PM 52.8833 -74.3667 207° Southwest 460 529 36,000  Level Montreal Center
12:30PM 52.7667 -74.4667 207° Southwest 460 529 36,000  Level Montreal Center
12:31PM 52.6667 -74.5833 215° Southwest 460 529 36,000  Level Montreal Center
12:32PM 52.5500 -74.6667 203° Southwest 460 529 36,000  Level Montreal Center
12:33PM 52.4167 -74.7500 201° Southwest 450 518 36,000  Level Montreal Center
12:34PM 52.3000 -74.8333 204° Southwest 450 518 36,000  Level Montreal Center
12:35PM 52.2000 -74.9167 207° Southwest 450 518 36,000  Level Montreal Center
12:36PM 52.0833 -75.0000 204° Southwest 450 518 36,000  Level Montreal Center
12:37PM 51.9667 -75.1167 212° Southwest 470 541 36,000  Level Montreal Center
12:38PM 51.8500 -75.2000 204° Southwest 460 529 36,000  Level Montreal Center
12:39PM 51.7333 -75.2833 204° Southwest 460 529 36,000  Level Montreal Center
12:40PM 51.6167 -75.4000 212° Southwest 460 529 36,000  Level Montreal Center
12:41PM 51.5000 -75.4833 204° Southwest 460 529 36,000  Level Montreal Center
12:42PM 51.3833 -75.5667 204° Southwest 460 529 36,000  Level Montreal Center
12:43PM 51.2667 -75.6500 204° Southwest 460 529 36,000  Level Montreal Center
12:44PM 51.1500 -75.7500 208° Southwest 460 529 36,000  Level Montreal Center
12:45PM 51.0333 -75.8333 204° Southwest 460 529 36,000  Level Montreal Center
12:46PM 50.9167 -75.9167 204° Southwest 460 529 36,000  Level Montreal Center
12:47PM 50.8000 -76.0000 204° Southwest 460 529 36,000  Level Montreal Center
12:48PM 50.6833 -76.0667 200° South 460 529 36,000  Level Montreal Center
12:49PM 50.5667 -76.1833 212° Southwest 460 529 36,000  Level Montreal Center
12:50PM 50.4500 -76.2500 200° South 460 529 36,000  Level Montreal Center
12:51PM 50.3333 -76.3333 205° Southwest 460 529 36,000  Level Montreal Center
12:52PM 50.2167 -76.4167 205° Southwest 460 529 36,000  Level Montreal Center
12:53PM 50.0833 -76.5167 206° Southwest 460 529 36,000  Level Montreal Center
12:54PM 49.9667 -76.6000 205° Southwest 460 529 36,000  Level Montreal Center
12:55PM 49.8500 -76.6667 200° South 460 529 36,000  Level Montreal Center
12:56PM 49.7500 -76.7500 208° Southwest 460 529 36,000  Level Montreal Center
12:57PM 49.6167 -76.8500 206° Southwest 470 541 36,000  Level Montreal Center
12:58PM 49.5167 -76.9167 203° Southwest 450 518 36,000  Level Montreal Center
12:59PM 49.3833 -77.0000 202° Southwest 480 552 36,000  Level Montreal Center
01:00PM 49.2667 -77.0667 200° South 460 529 36,000  Level Montreal Center
01:01PM 49.1667 -77.1667 213° Southwest 450 518 36,000  Level Montreal Center
01:02PM 49.0333 -77.2500 202° Southwest 470 541 36,000  Level Montreal Center
01:04PM 48.8000 -77.4167 205° Southwest 460 529 36,000  Level Montreal Center
01:05PM 48.6833 -77.4667 196° South 460 529 36,000  Level Montreal Center
01:06PM 48.5667 -77.5667 210° Southwest 460 529 36,000  Level Montreal Center
01:07PM 48.4500 -77.6333 201° Southwest 460 529 36,000  Level Montreal Center
01:08PM 48.3333 -77.7167 205° Southwest 460 529 36,000  Level Montreal Center
01:09PM 48.2167 -77.8000 205° Southwest 460 529 36,000  Level Montreal Center
01:10PM 48.1000 -77.8833 206° Southwest 460 529 36,000  Level Montreal Center
01:11PM 47.9667 -77.9500 199° South 460 529 36,000  Level Montreal Center
01:12PM 47.8500 -78.0500 210° Southwest 460 529 36,000  Level Montreal Center
01:13PM 47.7333 -78.1167 201° Southwest 460 529 36,000  Level Montreal Center
01:14PM 47.6333 -78.2167 214° Southwest 460 529 36,000  Level Montreal Center
01:15PM 47.5000 -78.2833 199° South 460 529 36,000  Level Montreal Center
01:16PM 47.4000 -78.3667 209° Southwest 460 529 36,000  Level Montreal Center
01:17PM 47.2833 -78.4333 201° Southwest 460 529 36,000  Level Montreal Center
01:18PM 47.1500 -78.5333 207° Southwest 460 529 36,000  Level Montreal Center
01:19PM 47.0500 -78.6000 204° Southwest 460 529 36,000  Level Montreal Center
01:20PM 46.9167 -78.7000 207° Southwest 470 541 36,000  Level Montreal Center
01:21PM 46.8000 -78.7833 206° Southwest 470 541 36,000  Level Montreal Center
01:22PM 46.7000 -78.8500 205° Southwest 470 541 36,000  Level Montreal Center
01:23PM 46.5667 -78.9500 207° Southwest 470 541 36,000  Level Montreal Center
01:24PM 46.4500 -79.0167 201° Southwest 470 541 36,000  Level Montreal Center
01:25PM 46.3333 -79.1000 206° Southwest 470 541 36,000  Level Montreal Center
01:26PM 46.2167 -79.1833 206° Southwest 460 529 36,000  Level Montreal Center
01:27PM 46.1000 -79.2500 202° Southwest 470 541 36,000  Level Montreal Center
01:32PM 45.7109 -79.5152 202° Southwest 459 528 36,000  Level FlightAware ADS-B (CYKF)
01:33PM 45.3001 -79.7837 205° Southwest 462 532 36,000  Level FlightAware ADS-B (CYKF)
01:34PM 45.2225 -79.8339 205° Southwest 460 529 36,000  Level FlightAware ADS-B (CYKF)
01:35PM 45.1973 -79.8501 204° Southwest 463 533 36,000  Level FlightAware ADS-B (CYKF)
01:36PM 44.9702 -79.9964 204° Southwest 465 535 36,000  Level FlightAware ADS-B (CYKF)
01:37PM 44.8753 -80.0570 204° Southwest 465 535 36,000  Level FlightAware ADS-B (CYKF)
01:38PM 44.7531 -80.1347 204° Southwest 463 533 36,000  Level FlightAware ADS-B (CYKF)
01:39PM 44.6746 -80.1845 204° Southwest 462 532 36,000  Level FlightAware ADS-B (CYKF)
01:39PM 44.5997 -80.2320 204° Southwest 462 532 36,000  Level FlightAware ADS-B (CYKF)
01:40PM 44.5315 -80.2750 204° Southwest 464 534 36,000  Level FlightAware ADS-B (CYKF)
01:41PM 44.4366 -80.3346 204° Southwest 467 537 36,000  Level FlightAware ADS-B (CYKF)
01:41PM 44.3604 -80.3823 204° Southwest 468 539 36,000  Level FlightAware ADS-B (CYKF)
01:42PM 44.2782 -80.4336 204° Southwest 469 540 36,000  Level FlightAware ADS-B (CYKF)
01:43PM 44.1708 -80.5004 204° Southwest 470 541 36,000  Level FlightAware ADS-B (CYKF)
01:44PM 44.0866 -80.5527 204° Southwest 470 541 36,000  Level FlightAware ADS-B (CYKF)
01:44PM 44.0040 -80.6038 204° Southwest 472 543 36,000  Level FlightAware ADS-B (CYKF)
01:45PM 43.9229 -80.6538 204° Southwest 472 543 36,000  Level FlightAware ADS-B (CYKF)
01:46PM 43.8430 -80.7028 204° Southwest 472 543 36,000  Level FlightAware ADS-B (CYKF)
01:46PM 43.7689 -80.7483 204° Southwest 474 545 36,000  Level FlightAware ADS-B (CYKF)
01:47PM 43.6843 -80.7999 204° Southwest 474 545 36,000  Level FlightAware ADS-B (CYKF)
01:48PM 43.6049 -80.8484 204° Southwest 475 547 36,000  Level FlightAware ADS-B (CYKF)
01:48PM 43.5343 -80.8913 204° Southwest 474 545 36,000  Level FlightAware ADS-B (CYKF)
01:49PM 43.4475 -80.9438 204° Southwest 473 544 36,000  Level FlightAware ADS-B (CYKF)
01:50PM 43.3612 -80.9960 204° Southwest 475 547 36,000  Level FlightAware ADS-B (CYKF)
01:50PM 43.2820 -81.0437 204° Southwest 478 550 36,000  Level FlightAware ADS-B (CYKF)
01:51PM 43.2103 -81.0868 204° Southwest 478 550 36,000  Level FlightAware ADS-B (CYKF)
01:52PM 43.1192 -81.1411 204° Southwest 478 550 36,000  Level FlightAware ADS-B (CYKF)
01:52PM 43.0431 -81.1865 204° Southwest 479 551 36,000  Level FlightAware ADS-B (CYKF)
01:53PM 42.9596 -81.2362 204° Southwest 479 551 36,000  Level FlightAware ADS-B (CYKF)
01:54PM 42.8785 -81.2846 204° Southwest 481 554 36,000  Level FlightAware ADS-B (CYKF)
01:54PM 42.8006 -81.3306 203° Southwest 480 552 36,000  Level FlightAware ADS-B (CYKF)
01:55PM 42.6748 -81.4048 203° Southwest 477 549 36,000  Level FlightAware ADS-B (CYKF)
01:56PM 42.5552 -81.4751 203° Southwest 478 550 36,000  Level FlightAware ADS-B (CYKF)
01:57PM 42.4569 -81.5326 203° Southwest 482 555 36,000  Level FlightAware ADS-B (CYKF)
01:58PM 42.3630 -81.5873 203° Southwest 483 556 36,000  Level FlightAware ADS-B (CYKF)
02:00PM 42.1696 -81.6994 203° Southwest 483 556 36,000  Level FlightAware ADS-B (CYKF)
02:00PM 42.0833 -81.7500 203° Southwest 480 552 36,000  Level Toronto Center
02:01PM 42.0169 -81.7869 202° Southwest 481 554 36,000  Level Cleveland Center
02:02PM 41.8936 -81.8578 203° Southwest 479 551 36,000  Level Cleveland Center
02:03PM 41.7706 -81.9278 203° Southwest 479 551 36,000  Level Cleveland Center
02:04PM 41.6478 -81.9981 203° Southwest 479 551 36,000  Level Cleveland Center
02:05PM 41.5261 -82.0667 203° Southwest 475 547 36,000  Level Cleveland Center
02:06PM 41.4056 -82.1333 203° Southwest 471 542 36,000  Level Cleveland Center
02:07PM 41.2564 -82.1944 197° South 480 552 36,000  Level Cleveland Center
02:13PM 40.4466 -82.4856 197° South 473 544 36,000  Level FlightAware ADS-B
02:14PM 40.3580 -82.5166 195° South 470 541 36,000  Level FlightAware ADS-B
02:15PM 40.2789 -82.5441 195° South 468 539 36,000  Level FlightAware ADS-B
02:15PM 40.1886 -82.5748 195° South 467 537 36,000  Level FlightAware ADS-B
02:16PM 40.1060 -82.5900 188° South 473 544 36,000  Level FlightAware ADS-B
02:17PM 40.0364 -82.5947 183° South 473 544 36,000  Level FlightAware ADS-B
02:17PM 39.9285 -82.6033 183° South 472 543 36,000  Level FlightAware ADS-B
02:18PM 39.8419 -82.6095 183° South 471 542 36,000  Level FlightAware ADS-B
02:19PM 39.7611 -82.6150 183° South 469 540 36,000  Level FlightAware ADS-B
02:22PM 39.3958 -82.6395 183° South 454 522 36,000  Level FlightAware ADS-B (KPMH)
02:23PM 39.1730 -82.6543 183° South 456 525 36,000  Level FlightAware ADS-B (KPMH)
02:25PM 38.9575 -82.6687 183° South 460 529 36,000  Level FlightAware ADS-B (KPMH)
02:27PM 38.7221 -82.6841 183° South 454 522 36,000  Level FlightAware ADS-B (KBRY)
02:28PM 38.5594 -82.6944 183° South 451 519 36,000  Level Indianapolis Center
02:29PM 38.4364 -82.7022 183° South 443 510 36,000  Level Indianapolis Center
02:30PM 38.3133 -82.7089 182° South 441 507 36,000  Level Indianapolis Center
02:31PM 38.1692 -82.7192 183° South 444 511 36,000  Level Indianapolis Center
02:32PM 38.0464 -82.7294 184° South 443 510 36,000  Level Indianapolis Center
02:33PM 37.9233 -82.7367 183° South 441 507 36,000  Level Indianapolis Center
02:34PM 37.8011 -82.7442 183° South 439 505 36,000  Level Indianapolis Center
02:35PM 37.6828 -82.7650 188° South 430 495 36,000  Level Indianapolis Center
02:37PM 37.5764 -82.8175 201° Southwest 413 475 36,000  Level Indianapolis Center
02:38PM 37.4597 -82.8961 208° Southwest 408 470 36,000  Level Indianapolis Center
02:39PM 37.3583 -82.9622 207° Southwest 409 471 36,000  Level Indianapolis Center
02:40PM 37.2581 -83.0289 208° Southwest 409 471 36,000  Level Indianapolis Center
02:41PM 37.1578 -83.0942 207° Southwest 409 471 36,000  Level Indianapolis Center
02:42PM 37.0572 -83.1594 207° Southwest 409 471 36,000  Level Indianapolis Center
02:43PM 36.9408 -83.2356 208° Southwest 409 471 36,000  Level Indianapolis Center
02:44PM 36.8406 -83.2989 207° Southwest 407 468 36,000  Level Indianapolis Center
02:45PM 36.7403 -83.3631 207° Southwest 405 466 36,000  Level Indianapolis Center
02:46PM 36.6406 -83.4269 207° Southwest 404 465 36,000  Level Indianapolis Center
02:47PM 36.5394 -83.4911 207° Southwest 407 468 36,000  Level Indianapolis Center
02:48PM 36.4342 -83.5594 208° Southwest 401 461 36,000  Level Indianapolis Center
02:49PM 36.3353 -83.6231 207° Southwest 401 461 36,000  Level Indianapolis Center
02:50PM 36.2347 -83.6850 206° Southwest 401 461 36,000  Level Indianapolis Center
02:51PM 36.1361 -83.7486 208° Southwest 399 459 36,000  Level Indianapolis Center
02:52PM 36.0167 -83.8239 207° Southwest 400 460 36,000  Level Indianapolis Center
02:53PM 35.9142 -83.8856 206° Southwest 404 465 36,000  Level Indianapolis Center
02:58PM 35.2873 -84.0442 206° Southwest 410 472 36,000  Level FlightAware ADS-B (KDZJ)
02:59PM 35.1699 -84.0724 191° South 410 472 36,000  Level FlightAware ADS-B (KDZJ)
03:00PM 35.0600 -84.0987 191° South 411 473 36,000  Level FlightAware ADS-B (KDZJ)
03:01PM 34.9833 -84.1170 191° South 413 475 36,000  Level FlightAware ADS-B (KDZJ)
03:02PM 34.9066 -84.1353 191° South 424 488 36,000  Level FlightAware ADS-B (KDZJ)
03:02PM 34.8312 -84.1532 191° South 423 487 36,000  Level FlightAware ADS-B (KDZJ)
03:03PM 34.7690 -84.1680 191° South 414 476 36,000  Level FlightAware ADS-B (KDZJ)
03:04PM 34.6342 -84.1999 191° South 413 475 36,000  Level FlightAware ADS-B (KDZJ)
03:05PM 34.5207 -84.2269 191° South 412 474 36,000  Level FlightAware ADS-B (KDZJ)
03:06PM 34.4429 -84.2452 191° South 413 475 36,000  Level FlightAware ADS-B (KDZJ)
03:06PM 34.3683 -84.2627 191° South 413 475 36,000  Level FlightAware ADS-B (KDZJ)
03:07PM 34.2535 -84.2897 191° South 423 487 36,000  Level FlightAware ADS-B (KDZJ)
03:08PM 34.1401 -84.3163 191° South 424 488 36,000  Level FlightAware ADS-B (KDZJ)
03:09PM 34.0603 -84.3349 191° South 414 476 36,000  Level FlightAware ADS-B (KDZJ)
03:10PM 33.9870 -84.3520 191° South 413 475 36,000  Level FlightAware ADS-B (KDZJ)
03:11PM 33.8564 -84.3839 191° South 423 487 36,000  Level Atlanta Center
03:12PM 33.7436 -84.4086 190° South 430 495 36,000  Level Atlanta Center
03:13PM 33.6308 -84.4356 191° South 425 489 36,000  Level Atlanta Center
03:14PM 33.5203 -84.4350 180° South 430 495 36,000  Level Atlanta Center
03:16PM 33.2822 -84.4339 180° South 430 495 36,000  Level Atlanta Center
03:17PM 33.1633 -84.4308 179° South 425 489 36,000  Level Atlanta Center
03:18PM 33.0442 -84.4278 179° South 425 489 36,000 -300 Level Atlanta Center
03:19PM 32.9150 -84.4272 180° South 425 489 35,400 -540 Descending Atlanta Center
03:20PM 32.7958 -84.4267 180° South 425 489 35,000 -240 Descending Atlanta Center
03:21PM 32.6769 -84.4189 177° South 425 489 35,000  Level Atlanta Center
03:22PM 32.5581 -84.4158 179° South 425 489 35,000  Level Atlanta Center
03:23PM 32.4369 -84.4153 180° South 425 489 35,000  Level Atlanta Center
03:24PM 32.3181 -84.4125 179° South 425 489 35,000  Level Atlanta Center
03:27PM 31.9531 -84.4033 179° South 435 501 35,000  Level Jacksonville Center
03:28PM 31.8339 -84.4014 179° South 435 501 35,000  Level Jacksonville Center
03:34PM 31.1545 -84.2856 179° South 431 496 35,000  Level FlightAware ADS-B (KTLH)
03:34PM 31.0761 -84.2621 166° South 432 497 35,000  Level FlightAware ADS-B (KTLH)
03:35PM 31.0036 -84.2406 166° South 432 497 35,000  Level FlightAware ADS-B (KTLH)
03:36PM 30.9254 -84.2176 166° South 432 497 35,000  Level FlightAware ADS-B (KTLH)
03:36PM 30.8446 -84.1937 166° South 431 496 35,000  Level FlightAware ADS-B (KTLH)
03:37PM 30.7839 -84.1758 166° South 432 497 35,000  Level FlightAware ADS-B (KTLH)
03:38PM 30.6907 -84.1484 166° South 431 496 35,000  Level FlightAware ADS-B (KTLH)
03:38PM 30.6102 -84.1247 166° South 430 495 35,000  Level FlightAware ADS-B (KTLH)
03:39PM 30.5363 -84.1029 166° South 428 493 35,000  Level FlightAware ADS-B (KTLH)
03:40PM 30.4565 -84.0797 166° South 427 491 35,000  Level FlightAware ADS-B (KTLH)
03:40PM 30.3828 -84.0582 166° South 427 491 35,000  Level FlightAware ADS-B (KTLH)
03:41PM 30.3034 -84.0350 166° South 427 491 35,000  Level FlightAware ADS-B (KTLH)
03:42PM 30.2310 -84.0139 166° South 427 491 35,000  Level FlightAware ADS-B (KTLH)
03:43PM 30.1344 -83.9858 166° South 428 493 35,000  Level FlightAware ADS-B (KTLH)
03:43PM 30.0779 -83.9694 166° South 428 493 35,000  Level FlightAware ADS-B (KTLH)
03:44PM 29.9593 -83.9350 166° South 429 494 35,000  Level FlightAware ADS-B (KTLH)
03:45PM 29.8852 -83.9135 166° South 431 496 35,000  Level FlightAware ADS-B (KTLH)
03:46PM 29.7391 -83.8427 157° South 451 519 35,000  Level FlightAware ADS-B (KTLH)
03:47PM 29.6267 -83.7717 157° South 441 507 35,000  Level Jacksonville Center
03:48PM 29.5186 -83.7017 151° Southeast 446 513 35,000  Level Jacksonville Center
03:49PM 29.4083 -83.6317 151° Southeast 451 519 35,000  Level Jacksonville Center
03:50PM 29.3003 -83.5617 151° Southeast 451 519 35,000  Level Jacksonville Center
03:56PM 28.7128 -83.1873 151° Southeast 452 520 35,000  Level FlightAware ADS-B (KMCO)
04:01PM 28.0551 -82.7757 151° Southeast 452 520 35,000  Level FlightAware ADS-B (KMCO)
04:02PM 27.9877 -82.7339 151° Southeast 453 521 35,000  Level FlightAware ADS-B (KMCO)
04:03PM 27.9188 -82.6922 152° Southeast 450 518 35,000  Level FlightAware ADS-B (KMCO)
04:03PM 27.8618 -82.6780 168° South 414 476 35,000  Level FlightAware ADS-B (KMCO)
04:04PM 27.7489 -82.6750 168° South 419 482 35,000  Level Miami Center
04:10PM 27.0657 -82.6442 168° South 412 474 35,000  Level FlightAware ADS-B (KMCO)
04:11PM 27.0169 -82.6422 178° South 409 471 35,000  Level FlightAware ADS-B (KMCO)
04:12PM 26.8169 -82.6339 178° South 407 468 35,000  Level FlightAware ADS-B (KMCO)
04:14PM 26.5932 -82.6245 178° South 411 473 35,000  Level FlightAware ADS-B (KMCO)
04:15PM 26.4952 -82.6205 178° South 411 473 35,000  Level FlightAware ADS-B (KMCO)
04:16PM 26.4355 -82.6180 178° South 410 472 35,000  Level FlightAware ADS-B (KMCO)
04:16PM 26.3636 -82.6150 178° South 409 471 35,000  Level FlightAware ADS-B (KMCO)
04:17PM 26.3077 -82.6126 178° South 410 472 35,000  Level FlightAware ADS-B (KMCO)
04:17PM 26.2368 -82.6097 178° South 413 475 35,000  Level FlightAware ADS-B (KMCO)
04:18PM 26.1625 -82.6066 178° South 415 478 35,000  Level FlightAware ADS-B (KMCO)
04:19PM 26.0723 -82.6029 178° South 416 479 35,000  Level FlightAware ADS-B (KMCO)
04:20PM 25.9774 -82.5990 178° South 415 478 35,000  Level FlightAware ADS-B (KMCO)
04:20PM 25.9167 -82.5965 178° South 415 478 35,000  Level FlightAware ADS-B (KMCO)
04:21PM 25.8596 -82.5942 178° South 416 479 35,000  Level FlightAware ADS-B (KMCO)
04:22PM 25.7449 -82.5893 178° South 416 479 35,000  Level FlightAware ADS-B (KMCO)
04:22PM 25.6820 -82.5868 178° South 415 478 35,000  Level FlightAware ADS-B (KMCO)
04:23PM 25.6216 -82.5843 178° South 415 478 35,000  Level FlightAware ADS-B (KMCO)
04:23PM 25.5656 -82.5820 178° South 415 478 35,000  Level FlightAware ADS-B (KMCO)
04:24PM 25.4361 -82.5767 178° South 416 479 35,000  Level FlightAware ADS-B (KMCO)
04:25PM 25.3217 -82.5747 178° South 420 483 35,000  Level Miami Center
04:26PM 25.2050 -82.5692 178° South 420 483 35,000  Level Miami Center
04:27PM 25.0881 -82.5661 179° South 420 483 35,000  Level Miami Center
04:28PM 24.9714 -82.5606 178° South 420 483 35,000 -120 Level Miami Center
04:29PM 24.8567 -82.5553 178° South 420 483 34,800 -840 Descending Miami Center
04:30PM 24.7397 -82.5589 182° South 420 483 33,400 -1,200 Descending Miami Center
04:31PM 24.6228 -82.5628 182° South 420 483 32,400 -1,440 Descending Miami Center
04:32PM 24.5056 -82.5664 182° South 426 490 30,600 -1,860 Descending Miami Center
04:33PM 24.3928 -82.5681 181° South 421 484 28,700 -1,920 Descending Miami Center
04:34PM 24.2800 -82.5719 182° South 416 479 26,800 -1,920 Descending Miami Center
04:35PM 24.1714 -82.5761 182° South 406 467 24,900 -1,860 Descending Miami Center
04:36PM 24.0606 -82.5781 181° South 400 460 23,100 -1,800 Descending Miami Center
04:38PM 23.9148 -82.5549 176° South  Level Estimated
04:45PM 23.0741 -82.4048 170° South  Level FlightAware Approximate
04:46PM 22.9891 -82.4091 180° South  Level Estimated
04:47PM 22.9891 -82.4091 180° South  Level Estimated
04:48PM 22.9891 -82.4091 180° South  Level Estimated
04:49PM 22.9891 -82.4091 180° South  Level Estimated
04:50PM 22.9891 -82.4091 180° South  Level Estimated
04:51PM 22.9891 -82.4091 180° South  Level Estimated
04:52PM 22.9891 -82.4091 180° South  Level Estimated
04:53PM 22.9891 -82.4091 180° South  Level Estimated
04:54PM 22.9891 -82.4091 180° South  Level Estimated
04:55PM 22.9891 -82.4091 180° South  Level Estimated
04:56PM 22.9891 -82.4091 180° South  Level Estimated
04:57PM 22.9891 -82.4091 180° South  Level Estimated
04:58PM 22.9891 -82.4091 180° South  Level Estimated
04:59PM 22.9891 -82.4091 180° South  Level Estimated
05:00PM 22.9891 -82.4091 180° South  Level Estimated
05:01PM 22.9891 -82.4091 180° South  Level Estimated
05:02PM 22.9891 -82.4091 180° South  Level Estimated
05:03PM 22.9891 -82.4091 180° South  Level Estimated
05:04PM 22.9891 -82.4091 180° South  Level Estimated
05:05PM 22.9891 -82.4091 180° South  Level Estimated
05:06PM 22.9891 -82.4091 180° South  Level Estimated
05:07PM 22.9891 -82.4091 180° South  Level Estimated